Time;durP1;ratioP1;P1;durP2;ratioP2;P2;SDS_P1;SDS_P2;PMS_P1;PMS_P2;Temp;Humidity;BMP_temperature;BMP_pressure;BME280_temperature;BME280_humidity;BME280_pressure;Samples;Min_cycle;Max_cycle;Signal;HPM_P1;HPM_P2
2023/11/07 00:02:33;;;;;;;6.20;2.90;;;;;;;8.57;100.00;99873.47;5135647;56;1136769;-71
2023/11/07 00:07:39;;;;;;;17.00;5.73;;;;;;;8.57;100.00;99873.47;5047921;56;1136906;-76
2023/11/07 00:12:45;;;;;;;10.90;3.90;;;;;;;8.55;100.00;99889.91;4948465;58;1138812;-73
2023/11/07 00:17:50;;;;;;;14.13;4.12;;;;;;;8.54;100.00;99882.13;5087856;56;1138931;-70
2023/11/07 00:22:57;;;;;;;7.37;2.90;;;;;;;8.54;100.00;99886.91;5138051;56;1139127;-68
2023/11/07 00:28:03;;;;;;;9.40;3.13;;;;;;;8.55;100.00;99899.13;5119294;56;1136931;-72
2023/11/07 00:33:09;;;;;;;12.05;3.08;;;;;;;8.58;100.00;99899.34;5133058;56;1136734;-72
2023/11/07 00:38:15;;;;;;;11.25;3.42;;;;;;;8.59;100.00;99903.66;5152214;55;1138883;-75
2023/11/07 00:43:20;;;;;;;11.03;5.22;;;;;;;8.62;100.00;99910.02;5170937;55;1138903;-71
2023/11/07 00:48:26;;;;;;;15.57;4.63;;;;;;;8.64;100.00;99906.78;5206486;55;1138725;-74
2023/11/07 00:53:32;;;;;;;10.37;3.07;;;;;;;8.64;100.00;99901.03;5226707;55;1138541;-75
2023/11/07 00:58:37;;;;;;;9.57;2.87;;;;;;;8.66;100.00;99904.86;5206470;55;1138616;-75
2023/11/07 01:03:45;;;;;;;5.93;3.33;;;;;;;8.67;100.00;99906.54;5206355;55;1136371;-75
2023/11/07 01:08:50;;;;;;;10.10;3.57;;;;;;;8.71;100.00;99906.63;5149953;55;1136613;-71
2023/11/07 01:13:56;;;;;;;10.73;2.87;;;;;;;8.72;100.00;99902.55;5141186;55;1138890;-74
2023/11/07 01:19:03;;;;;;;9.93;3.73;;;;;;;8.76;100.00;99897.89;5119480;55;1139124;-74
2023/11/07 01:24:10;;;;;;;8.03;2.03;;;;;;;8.79;100.00;99905.55;5119275;56;1136821;-73
2023/11/07 01:29:17;;;;;;;8.95;3.10;;;;;;;8.75;100.00;99908.91;5138893;56;1137109;-71
2023/11/07 01:34:22;;;;;;;6.17;3.20;;;;;;;8.79;100.00;99916.10;5119447;56;1136805;-77
2023/11/07 01:39:28;;;;;;;7.70;3.47;;;;;;;8.78;100.00;99917.06;5186967;55;1136569;-72
2023/11/07 01:44:34;;;;;;;5.40;2.60;;;;;;;8.78;100.00;99914.42;5226781;55;1136716;-72
2023/11/07 01:49:40;;;;;;;8.23;3.10;;;;;;;8.77;100.00;99910.95;5206490;55;1136808;-71
2023/11/07 01:54:47;;;;;;;10.03;2.83;;;;;;;8.77;100.00;99926.77;5206148;55;1136963;-73
2023/11/07 01:59:54;;;;;;;6.15;2.87;;;;;;;8.79;100.00;99928.80;5218634;55;1138735;-74
2023/11/07 02:05:00;;;;;;;11.27;3.27;;;;;;;8.77;100.00;99927.25;5240154;55;1136667;-71
2023/11/07 02:10:12;;;;;;;9.97;2.73;;;;;;;8.76;100.00;99934.31;5205775;55;1139029;-72
2023/11/07 02:15:29;;;;;;;9.03;3.00;;;;;;;8.74;100.00;99937.55;5131382;56;1136965;-72
2023/11/07 02:20:41;;;;;;;8.03;2.67;;;;;;;8.75;100.00;99933.13;5152116;55;1136769;-74
2023/11/07 02:25:43;;;;;;;10.50;3.10;;;;;;;8.75;100.00;99944.98;5129883;55;1136774;-75
2023/11/07 02:30:48;;;;;;;9.77;2.93;;;;;;;8.74;100.00;99940.19;5131376;55;1138882;-76
2023/11/07 02:35:54;;;;;;;6.03;2.67;;;;;;;8.73;100.00;99945.58;5137621;55;1141189;-68
2023/11/07 02:40:59;;;;;;;4.40;2.17;;;;;;;8.71;100.00;99944.86;5239566;55;1136816;-74
2023/11/07 02:46:05;;;;;;;7.47;2.30;;;;;;;8.71;100.00;99955.41;5219290;55;1136626;-71
2023/11/07 02:51:17;;;;;;;6.65;1.95;;;;;;;8.71;100.00;99955.41;5235301;55;1136861;-74
2023/11/07 02:56:30;;;;;;;11.65;2.25;;;;;;;8.71;100.00;99958.04;5239317;55;1136847;-74
2023/11/07 03:01:35;;;;;;;4.37;1.82;;;;;;;8.71;100.00;99961.52;5219664;55;1138645;-75
2023/11/07 03:06:41;;;;;;;5.27;2.10;;;;;;;8.69;100.00;99962.14;5185874;55;1136966;-70
2023/11/07 03:11:47;;;;;;;4.43;1.83;;;;;;;8.71;100.00;99968.11;5054475;56;1137114;-69
2023/11/07 03:16:53;;;;;;;5.03;1.90;;;;;;;8.70;100.00;99970.41;5093811;56;1137068;-69
2023/11/07 03:21:59;;;;;;;4.27;1.70;;;;;;;8.66;100.00;99976.88;5110234;56;1136926;-73
2023/11/07 03:27:05;;;;;;;6.30;1.70;;;;;;;8.63;100.00;99985.02;5111594;56;1136784;-74
2023/11/07 03:32:11;;;;;;;4.30;1.60;;;;;;;8.63;100.00;99996.04;5131013;56;1136791;-72
2023/11/07 03:37:17;;;;;;;2.67;1.40;;;;;;;8.59;100.00;100004.66;5074629;56;1136757;-71
2023/11/07 03:42:23;;;;;;;4.00;1.40;;;;;;;8.56;100.00;100003.57;5132228;56;1138852;-74
2023/11/07 03:47:29;;;;;;;2.10;1.57;;;;;;;8.53;100.00;100009.11;5152694;56;1139138;-72
2023/11/07 03:52:35;;;;;;;2.70;1.47;;;;;;;8.51;100.00;100005.74;5091021;56;1138925;-74
2023/11/07 03:57:40;;;;;;;2.10;1.30;;;;;;;8.50;100.00;100005.86;4954258;58;1138736;-68
2023/11/07 04:02:47;;;;;;;2.67;1.57;;;;;;;8.46;100.00;100011.84;4953145;57;1139063;-72
2023/11/07 04:07:55;;;;;;;3.17;1.60;;;;;;;8.42;100.00;100017.81;5116381;56;1138859;-68
2023/11/07 04:13:05;;;;;;;3.50;1.23;;;;;;;8.41;100.00;100013.98;5137295;55;1139117;-76
2023/11/07 04:18:10;;;;;;;1.57;1.27;;;;;;;8.36;100.00;100013.51;5148140;55;1138879;-73
2023/11/07 04:23:16;;;;;;;2.67;1.67;;;;;;;8.33;100.00;100020.33;5225066;55;1138639;-71
2023/11/07 04:28:22;;;;;;;6.58;1.75;;;;;;;8.32;100.00;100018.16;5178608;55;1138748;-74
2023/11/07 04:33:27;;;;;;;3.67;1.80;;;;;;;8.35;100.00;100030.27;5130931;55;1138536;-74
2023/11/07 04:38:34;;;;;;;6.00;1.87;;;;;;;8.36;100.00;100028.00;5143781;55;1138734;-74
2023/11/07 04:43:40;;;;;;;4.03;1.37;;;;;;;8.37;100.00;100031.84;5126697;55;1138700;-74
2023/11/07 04:48:45;;;;;;;5.63;2.40;;;;;;;8.40;100.00;100034.73;5077005;55;1138840;-70
2023/11/07 04:53:52;;;;;;;1.33;1.13;;;;;;;8.41;100.00;100039.85;5034118;56;1139105;-75
2023/11/07 04:58:57;;;;;;;1.60;1.40;;;;;;;8.43;100.00;100041.05;5067160;55;1138852;-74
2023/11/07 05:04:03;;;;;;;4.53;1.47;;;;;;;8.46;100.00;100050.89;5038765;56;1138853;-77
2023/11/07 05:09:12;;;;;;;3.73;1.50;;;;;;;8.43;100.00;100057.70;4996714;56;1138885;-71
2023/11/07 05:14:16;;;;;;;2.87;1.23;;;;;;;8.39;100.00;100051.02;4998544;57;1139084;-76
2023/11/07 05:19:22;;;;;;;4.75;1.55;;;;;;;8.35;100.00;100057.46;5053517;56;1138853;-74
2023/11/07 05:24:28;;;;;;;6.80;1.17;;;;;;;8.33;100.00;100055.89;5064274;56;1138905;-72
2023/11/07 05:29:34;;;;;;;5.07;1.50;;;;;;;8.27;100.00;100062.42;4984599;56;1138848;-70
2023/11/07 05:34:40;;;;;;;2.50;1.30;;;;;;;8.24;100.00;100069.74;5057229;56;1138895;-70
2023/11/07 05:39:46;;;;;;;2.47;1.50;;;;;;;8.20;100.00;100063.02;5034543;57;1139020;-71
2023/11/07 05:44:52;;;;;;;4.28;1.62;;;;;;;8.18;100.00;100084.67;5019793;56;1139061;-75
2023/11/07 05:49:57;;;;;;;2.90;1.80;;;;;;;8.16;100.00;100081.31;5028745;57;1138836;-72
2023/11/07 05:55:03;;;;;;;2.97;1.90;;;;;;;8.14;100.00;100091.95;5035205;56;1138623;-75
2023/11/07 06:00:13;;;;;;;4.97;2.10;;;;;;;8.10;100.00;100093.97;5015235;56;1138832;-73
2023/11/07 06:05:20;;;;;;;5.57;1.30;;;;;;;8.07;100.00;100107.87;5133129;55;1138860;-71
2023/11/07 06:10:27;;;;;;;2.65;1.10;;;;;;;8.04;100.00;100110.25;5100594;56;1138730;-70
2023/11/07 06:15:33;;;;;;;3.10;1.52;;;;;;;7.99;100.00;100115.00;5113757;55;1138853;-76
2023/11/07 06:20:39;;;;;;;1.40;1.13;;;;;;;7.97;100.00;100112.95;5139210;56;1138482;-71
2023/11/07 06:25:45;;;;;;;2.73;1.70;;;;;;;7.96;100.00;100123.59;5113855;55;1138941;-75
2023/11/07 06:30:51;;;;;;;2.60;1.67;;;;;;;7.95;100.00;100120.59;5108816;56;1138941;-75
2023/11/07 06:35:57;;;;;;;6.55;1.50;;;;;;;7.94;100.00;100124.20;5121523;55;1139370;-77
2023/11/07 06:41:03;;;;;;;2.77;1.57;;;;;;;7.96;100.00;100136.28;5151133;55;1138865;-75
2023/11/07 06:46:08;;;;;;;3.97;1.50;;;;;;;7.97;100.00;100138.44;5117889;55;1138732;-72
2023/11/07 06:51:23;;;;;;;4.77;1.47;;;;;;;8.00;100.00;100145.66;5082400;55;1138932;-72
2023/11/07 06:56:25;;;;;;;1.75;1.05;;;;;;;8.06;100.00;100148.33;5168274;55;1138956;-71
2023/11/07 07:01:32;;;;;;;4.17;1.65;;;;;;;8.15;100.00;100152.06;5139795;55;1138915;-72
2023/11/07 07:06:38;;;;;;;4.03;1.40;;;;;;;8.29;100.00;100155.84;5140537;55;1138913;-75
2023/11/07 07:11:44;;;;;;;2.87;1.30;;;;;;;8.42;100.00;100165.86;5161557;55;1138885;-68
2023/11/07 07:16:49;;;;;;;3.63;1.60;;;;;;;8.54;100.00;100163.66;5205709;55;1139016;-68
2023/11/07 07:21:55;;;;;;;6.20;2.33;;;;;;;8.68;100.00;100154.70;5140384;55;1138478;-70
2023/11/07 07:27:01;;;;;;;3.20;1.20;;;;;;;8.78;100.00;100160.48;5160247;55;1140358;-68
2023/11/07 07:32:10;;;;;;;6.83;1.47;;;;;;;8.90;100.00;100173.20;5163838;55;1138972;-69
2023/11/07 07:37:14;;;;;;;5.07;1.47;;;;;;;9.01;100.00;100173.72;5184992;55;1138885;-70
2023/11/07 07:42:23;;;;;;;6.12;1.62;;;;;;;9.12;100.00;100181.64;5181127;55;1139015;-69
2023/11/07 07:47:27;;;;;;;2.52;1.37;;;;;;;9.27;100.00;100188.86;5139813;55;1138711;-76
2023/11/07 07:52:32;;;;;;;3.58;1.22;;;;;;;9.41;100.00;100190.78;5138310;55;1138870;-71
2023/11/07 07:57:41;;;;;;;4.47;1.20;;;;;;;9.55;100.00;100193.66;5221462;55;1138509;-71
2023/11/07 08:02:46;;;;;;;6.50;1.70;;;;;;;9.62;100.00;100200.16;5136544;55;1138823;-72
2023/11/07 08:07:52;;;;;;;5.40;1.70;;;;;;;9.71;100.00;100200.73;5154257;55;1138768;-74
2023/11/07 08:12:57;;;;;;;2.60;1.30;;;;;;;9.79;100.00;100205.39;5129582;56;1138790;-72
2023/11/07 08:18:10;;;;;;;3.17;1.67;;;;;;;9.87;100.00;100203.84;5099502;56;1138989;-71
2023/11/07 08:23:12;;;;;;;3.55;1.70;;;;;;;9.94;100.00;100202.86;5123014;56;1138829;-69
2023/11/07 08:28:18;;;;;;;5.30;1.82;;;;;;;10.04;100.00;100210.42;5132044;56;1138885;-71
2023/11/07 08:33:24;;;;;;;4.25;1.50;;;;;;;10.12;100.00;100216.40;5153901;55;1140986;-69
2023/11/07 08:38:29;;;;;;;2.83;1.20;;;;;;;10.22;100.00;100225.31;5113364;55;1140501;-71
2023/11/07 08:43:36;;;;;;;1.50;0.93;;;;;;;10.33;100.00;100227.92;5091769;56;1140960;-70
2023/11/07 08:48:44;;;;;;;2.57;1.17;;;;;;;10.48;100.00;100221.39;5065122;57;1140756;-73
2023/11/07 08:53:49;;;;;;;1.60;0.80;;;;;;;10.61;100.00;100219.89;5069797;56;1140665;-72
2023/11/07 08:58:55;;;;;;;4.17;0.80;;;;;;;10.59;100.00;100221.81;5128884;56;1140864;-72
2023/11/07 09:04:03;;;;;;;2.58;0.80;;;;;;;10.62;100.00;100224.70;5124071;56;1141215;-66
2023/11/07 09:09:14;;;;;;;2.83;1.30;;;;;;;10.63;100.00;100231.19;5047386;57;1141097;-68
2023/11/07 09:14:15;;;;;;;4.97;1.03;;;;;;;10.64;100.00;100238.64;5054117;56;1140899;-68
2023/11/07 09:19:21;;;;;;;15.00;3.40;;;;;;;10.70;100.00;100235.47;5130296;56;1140951;-66
2023/11/07 09:24:27;;;;;;;3.17;1.20;;;;;;;10.78;100.00;100244.95;5101411;55;1143090;-66
2023/11/07 09:29:33;;;;;;;3.52;1.32;;;;;;;10.75;100.00;100240.75;5118803;56;1140957;-67
2023/11/07 09:34:43;;;;;;;1.83;1.10;;;;;;;10.76;100.00;100249.04;5142234;56;1141217;-71
2023/11/07 09:39:48;;;;;;;3.47;1.57;;;;;;;10.84;100.00;100241.33;4995631;57;1141125;-67
2023/11/07 09:44:54;;;;;;;6.83;0.80;;;;;;;10.97;100.00;100242.95;5102021;56;1141051;-66
2023/11/07 09:50:02;;;;;;;7.80;1.50;;;;;;;11.07;100.00;100242.03;5159530;55;1141008;-71
2023/11/07 09:55:09;;;;;;;5.83;1.33;;;;;;;11.12;100.00;100237.69;5135693;55;1141149;-70
2023/11/07 10:00:25;;;;;;;4.70;1.27;;;;;;;11.16;100.00;100244.37;5127477;56;1141174;-71
2023/11/07 10:05:27;;;;;;;2.82;1.02;;;;;;;11.16;100.00;100233.79;5136681;55;1140914;-70
2023/11/07 10:10:34;;;;;;;2.65;1.20;;;;;;;11.24;100.00;100236.16;5067050;56;1140816;-72
2023/11/07 10:15:41;;;;;;;2.43;1.03;;;;;;;11.30;100.00;100234.81;5155101;55;1140919;-72
2023/11/07 10:20:54;;;;;;;2.37;1.00;;;;;;;11.39;100.00;100231.37;5217255;55;1141040;-70
2023/11/07 10:26:06;;;;;;;2.53;0.87;;;;;;;11.48;100.00;100236.34;5197469;55;1141202;-70
2023/11/07 10:31:21;;;;;;;1.20;0.70;;;;;;;11.56;100.00;100237.87;5187807;55;1140785;-72
2023/11/07 10:36:31;;;;;;;4.40;1.15;;;;;;;11.66;100.00;100233.92;5153558;55;1140893;-69
2023/11/07 10:41:36;;;;;;;3.80;1.07;;;;;;;11.81;100.00;100232.14;5196125;55;1140961;-75
2023/11/07 10:46:44;;;;;;;2.33;1.10;;;;;;;11.91;100.00;100232.20;5195502;55;1140908;-74
2023/11/07 10:51:50;;;;;;;2.53;0.97;;;;;;;11.98;100.00;100225.37;5197039;55;1140895;-73
2023/11/07 10:56:59;;;;;;;1.03;0.90;;;;;;;12.11;100.00;100225.95;5213284;55;1140848;-70
2023/11/07 11:02:07;;;;;;;7.07;3.63;;;;;;;12.18;100.00;100223.13;5217054;55;1140876;-72
2023/11/07 11:07:13;;;;;;;2.63;1.10;;;;;;;12.20;100.00;100233.11;5156646;55;1140749;-75
2023/11/07 11:12:21;;;;;;;2.00;0.80;;;;;;;12.09;100.00;100223.92;5174638;55;1140845;-73
2023/11/07 11:17:38;;;;;;;1.85;0.90;;;;;;;12.09;100.00;100223.92;5186882;55;1141018;-70
2023/11/07 11:22:48;;;;;;;2.87;0.80;;;;;;;12.04;100.00;100234.60;5121568;55;1141091;-73
2023/11/07 11:28:05;;;;;;;0.50;0.50;;;;;;;12.12;100.00;100221.49;5071526;56;1140941;-70
2023/11/07 11:33:12;;;;;;;2.70;0.70;;;;;;;12.39;100.00;100227.47;5107867;56;1140874;-71
2023/11/07 11:38:23;;;;;;;1.70;0.57;;;;;;;12.66;100.00;100215.71;5137438;55;1141031;-71
2023/11/07 11:43:34;;;;;;;3.27;1.12;;;;;;;12.88;100.00;100219.39;5202435;55;1140984;-71
2023/11/07 11:48:55;;;;;;;5.77;0.90;;;;;;;13.01;100.00;100214.62;5189572;55;1141063;-71
2023/11/07 11:54:00;;;;;;;3.23;0.80;;;;;;;13.11;100.00;100219.94;5205748;55;1140850;-69
2023/11/07 11:59:11;;;;;;;1.13;0.80;;;;;;;13.15;100.00;100216.51;5141135;55;1141164;-69
2023/11/07 12:04:40;;;;;;;2.40;1.07;;;;;;;13.24;100.00;100210.36;5178624;55;1141146;-71
2023/11/07 12:09:50;;;;;;;4.37;0.80;;;;;;;13.31;100.00;100210.12;5116561;55;1140526;-70
2023/11/07 12:14:59;;;;;;;4.83;1.33;;;;;;;13.44;100.00;100203.19;5099151;55;1140573;-68
2023/11/07 12:20:07;;;;;;;1.40;0.80;;;;;;;13.47;100.00;100204.20;5203102;55;1141056;-70
2023/11/07 12:25:21;;;;;;;1.53;0.90;;;;;;;13.56;100.00;100204.18;5217599;55;1140701;-68
2023/11/07 12:30:25;;;;;;;7.33;0.90;;;;;;;13.70;100.00;100197.06;5209856;55;1140950;-71
2023/11/07 12:35:31;;;;;;;4.77;1.40;;;;;;;13.84;100.00;100202.38;5209781;55;1141162;-68
2023/11/07 12:40:39;;;;;;;1.77;0.90;;;;;;;14.05;100.00;100204.27;5228856;55;1141093;-76
2023/11/07 12:45:49;;;;;;;3.83;1.17;;;;;;;14.16;100.00;100200.59;5144086;55;1140841;-74
2023/11/07 12:50:54;;;;;;;1.80;1.00;;;;;;;14.25;100.00;100201.50;5212233;55;1140724;-76
2023/11/07 12:56:00;;;;;;;3.67;1.12;;;;;;;14.42;100.00;100204.70;5193534;55;1140948;-72
2023/11/07 13:01:07;;;;;;;1.70;0.87;;;;;;;14.14;100.00;100202.55;5161072;55;1140895;-73
2023/11/07 13:06:16;;;;;;;2.20;0.60;;;;;;;13.80;100.00;100204.97;5036078;57;1141249;-79
2023/11/07 13:11:26;;;;;;;0.80;0.80;;;;;;;13.46;100.00;100206.02;5145754;56;1140872;-72
2023/11/07 13:16:33;;;;;;;2.10;1.12;;;;;;;13.27;100.00;100216.23;5235626;55;1140905;-72
2023/11/07 13:21:38;;;;;;;7.22;0.62;;;;;;;13.09;100.00;100217.06;5127344;55;1140906;-75
2023/11/07 13:26:44;;;;;;;0.70;0.53;;;;;;;12.91;100.00;100215.12;5105239;55;1141050;-71
2023/11/07 13:31:51;;;;;;;1.33;0.80;;;;;;;12.82;100.00;100213.34;5087931;57;1141032;-71
2023/11/07 13:36:56;;;;;;;2.30;1.00;;;;;;;12.71;100.00;100221.41;5141156;55;1141041;-73
2023/11/07 13:42:02;;;;;;;2.40;1.20;;;;;;;12.61;100.00;100223.24;5120139;55;1140914;-76
2023/11/07 13:47:09;;;;;;;10.23;6.90;;;;;;;12.52;100.00;100227.58;5124455;55;1140913;-72
2023/11/07 13:52:15;;;;;;;13.37;4.70;;;;;;;12.43;100.00;100232.85;5166728;56;1143067;-77
2023/11/07 13:57:21;;;;;;;5.47;2.60;;;;;;;12.37;100.00;100234.75;5084173;57;1143063;-78
2023/11/07 14:02:28;;;;;;;8.10;2.37;;;;;;;12.30;100.00;100228.66;5082962;57;1141120;-73
2023/11/07 14:07:34;;;;;;;5.97;2.27;;;;;;;12.21;100.00;100234.80;5102612;57;1140992;-73
2023/11/07 14:12:44;;;;;;;7.40;2.72;;;;;;;12.12;100.00;100231.61;5082944;57;1140996;-72
2023/11/07 14:17:52;;;;;;;11.37;4.67;;;;;;;12.08;100.00;100235.98;5101186;56;1141039;-72
2023/11/07 14:22:57;;;;;;;19.33;5.40;;;;;;;12.01;100.00;100233.05;5103697;55;1143074;-72
2023/11/07 14:28:09;;;;;;;20.57;8.10;;;;;;;12.01;100.00;100233.05;5187886;55;1143089;-72
2023/11/07 14:33:19;;;;;;;6.90;2.80;;;;;;;11.98;100.00;100234.16;5118533;55;1143057;-77
2023/11/07 14:38:28;;;;;;;19.07;5.97;;;;;;;11.94;100.00;100232.74;5170351;55;1141179;-74
2023/11/07 14:43:33;;;;;;;8.35;4.12;;;;;;;11.96;100.00;100234.77;5159750;55;1142918;-69
2023/11/07 14:48:39;;;;;;;8.55;3.70;;;;;;;11.91;100.00;100222.44;5118230;56;1140800;-73
2023/11/07 14:53:46;;;;;;;3.10;2.17;;;;;;;11.86;100.00;100219.34;5118702;56;1140920;-70
2023/11/07 14:58:51;;;;;;;13.97;2.93;;;;;;;11.80;100.00;100223.84;5196712;55;1140818;-75
2023/11/07 15:03:58;;;;;;;5.37;2.70;;;;;;;11.76;100.00;100241.48;5205531;55;1142949;-77
2023/11/07 15:09:06;;;;;;;28.60;17.47;;;;;;;11.69;100.00;100230.53;5184780;55;1140927;-74
2023/11/07 15:14:11;;;;;;;13.10;9.37;;;;;;;11.71;100.00;100236.55;5149609;55;1145342;-72
2023/11/07 15:19:17;;;;;;;9.67;5.37;;;;;;;11.67;100.00;100235.12;5140089;55;1142793;-71
2023/11/07 15:24:23;;;;;;;29.50;19.37;;;;;;;11.59;100.00;100227.86;5119554;55;1141101;-74
2023/11/07 15:29:31;;;;;;;35.10;20.67;;;;;;;11.57;100.00;100223.66;5117999;55;1145156;-73
2023/11/07 15:34:37;;;;;;;46.48;19.07;;;;;;;11.55;100.00;100217.64;5137775;56;1145178;-75
2023/11/07 15:39:42;;;;;;;19.17;9.95;;;;;;;11.61;100.00;100231.67;5175095;55;1145180;-77
2023/11/07 15:44:48;;;;;;;19.23;6.03;;;;;;;11.46;100.00;100238.28;5162204;55;1142907;-76
2023/11/07 15:49:54;;;;;;;21.68;8.10;;;;;;;11.35;100.00;100231.75;5127620;56;1142954;-79
2023/11/07 15:54:59;;;;;;;29.67;10.70;;;;;;;11.31;100.00;100234.30;5160822;55;1142799;-72
2023/11/07 16:00:10;;;;;;;95.17;36.53;;;;;;;11.28;100.00;100234.09;5204328;55;1145193;-69
2023/11/07 16:05:15;;;;;;;40.83;23.30;;;;;;;11.25;100.00;100238.33;5189404;55;1144953;-72
2023/11/07 16:10:21;;;;;;;22.23;15.50;;;;;;;11.24;100.00;100236.16;5185577;55;1144806;-72
2023/11/07 16:15:27;;;;;;;17.57;9.47;;;;;;;11.25;100.00;100239.16;5181850;55;1145142;-70
2023/11/07 16:20:32;;;;;;;23.53;13.83;;;;;;;11.24;100.00;100237.48;5111064;56;1142815;-71
2023/11/07 16:25:39;;;;;;;8.47;6.50;;;;;;;11.24;100.00;100237.48;5133497;55;1144934;-71
2023/11/07 16:30:45;;;;;;;28.67;14.77;;;;;;;11.21;100.00;100240.87;5122192;55;1140743;-71
2023/11/07 16:35:51;;;;;;;44.73;28.50;;;;;;;11.17;100.00;100250.03;5130473;56;1144963;-74
2023/11/07 16:40:57;;;;;;;77.22;44.03;;;;;;;11.08;100.00;100247.69;5115026;56;1145016;-74
2023/11/07 16:46:03;;;;;;;47.67;28.83;;;;;;;10.99;100.00;100243.17;5120217;56;1144966;-71
2023/11/07 16:51:08;;;;;;;31.70;22.50;;;;;;;10.92;100.00;100247.28;5174856;55;1145299;-80
2023/11/07 16:56:14;;;;;;;59.53;38.57;;;;;;;10.87;100.00;100246.82;5186832;55;1145290;-72
2023/11/07 17:01:20;;;;;;;61.43;35.27;;;;;;;10.83;100.00;100237.00;5216804;55;1145104;-82
2023/11/07 17:06:25;;;;;;;42.73;26.77;;;;;;;10.85;100.00;100242.13;5187245;55;1145045;-78
2023/11/07 17:11:33;;;;;;;31.03;16.07;;;;;;;10.84;100.00;100237.84;5163602;55;1145170;-74
2023/11/07 17:16:39;;;;;;;29.85;17.82;;;;;;;10.80;100.00;100240.37;5108848;55;1145456;-79
2023/11/07 17:21:45;;;;;;;44.10;22.87;;;;;;;10.74;100.00;100240.39;5046426;57;1145011;-77
2023/11/07 17:26:51;;;;;;;36.67;18.87;;;;;;;10.67;100.00;100241.88;5055354;56;1145040;-81
2023/11/07 17:32:03;;;;;;;30.77;15.43;;;;;;;10.63;100.00;100244.41;5108980;56;1144973;-78
2023/11/07 17:37:04;;;;;;;32.37;14.63;;;;;;;10.58;100.00;100240.81;5129063;56;1145167;-78
2023/11/07 17:42:11;;;;;;;29.03;12.07;;;;;;;10.56;100.00;100251.99;5099685;56;1145096;-81
2023/11/07 17:47:17;;;;;;;21.67;8.13;;;;;;;10.52;100.00;100250.59;5030098;56;1145184;-74
2023/11/07 17:52:23;;;;;;;16.40;7.37;;;;;;;10.47;100.00;100246.63;5151017;56;1142867;-77
2023/11/07 17:57:28;;;;;;;16.77;8.10;;;;;;;10.43;100.00;100246.03;5131019;55;1142793;-71
2023/11/07 18:02:34;;;;;;;18.45;8.33;;;;;;;10.40;100.00;100241.47;5176103;55;1142829;-79
2023/11/07 18:07:40;;;;;;;23.30;9.85;;;;;;;10.39;100.00;100242.45;5202517;55;1143221;-77
2023/11/07 18:12:45;;;;;;;15.50;7.17;;;;;;;10.41;100.00;100240.02;5131146;55;1142881;-74
2023/11/07 18:17:51;;;;;;;9.87;6.20;;;;;;;10.43;100.00;100241.22;5130565;55;1143079;-74
2023/11/07 18:22:57;;;;;;;14.78;7.25;;;;;;;10.42;100.00;100231.13;5131059;55;1141170;-74
2023/11/07 18:28:03;;;;;;;11.03;6.30;;;;;;;10.40;100.00;100228.25;5149795;55;1142817;-73
2023/11/07 18:33:08;;;;;;;16.57;8.57;;;;;;;10.37;100.00;100230.69;5118618;55;1143038;-77
2023/11/07 18:38:14;;;;;;;18.90;7.30;;;;;;;10.35;100.00;100230.45;5140163;54;1143097;-77
2023/11/07 18:43:20;;;;;;;17.57;7.73;;;;;;;10.29;100.00;100229.61;5135352;56;1143003;-73
2023/11/07 18:48:26;;;;;;;17.20;8.40;;;;;;;10.23;100.00;100230.96;5015055;57;1143031;-73
2023/11/07 18:53:36;;;;;;;53.03;26.37;;;;;;;10.19;100.00;100231.69;4949411;57;1142846;-76
2023/11/07 18:58:39;;;;;;;38.83;19.80;;;;;;;10.18;100.00;100237.94;5115890;56;1145306;-68
2023/11/07 19:03:45;;;;;;;32.47;19.10;;;;;;;10.18;100.00;100231.33;5097400;56;1145109;-74
2023/11/07 19:08:51;;;;;;;45.93;19.63;;;;;;;10.18;100.00;100233.09;4949781;56;1145334;-70
2023/11/07 19:13:58;;;;;;;32.43;10.97;;;;;;;10.18;100.00;100227.36;4949918;57;1145169;-79
2023/11/07 19:19:04;;;;;;;23.50;10.70;;;;;;;10.17;100.00;100232.25;4969086;57;1145388;-71
2023/11/07 19:24:10;;;;;;;28.70;12.70;;;;;;;10.12;100.00;100232.25;4920971;57;1145295;-75
2023/11/07 19:29:16;;;;;;;21.57;9.67;;;;;;;10.11;100.00;100232.73;5038776;56;1145028;-72
2023/11/07 19:34:24;;;;;;;22.50;9.87;;;;;;;10.11;100.00;100236.70;5117247;56;1143098;-71
2023/11/07 19:39:34;;;;;;;16.70;7.97;;;;;;;10.06;100.00;100248.62;5150396;55;1142907;-72
2023/11/07 19:44:40;;;;;;;11.30;5.83;;;;;;;9.98;100.00;100245.25;5104562;55;1143053;-71
2023/11/07 19:49:45;;;;;;;12.95;6.67;;;;;;;9.93;100.00;100246.59;5105969;56;1140892;-77
2023/11/07 19:54:53;;;;;;;20.40;7.87;;;;;;;9.89;100.00;100245.98;5037569;57;1141080;-78
2023/11/07 19:59:58;;;;;;;12.28;6.80;;;;;;;9.88;100.00;100239.86;5042881;55;1140819;-77
2023/11/07 20:05:05;;;;;;;8.40;5.47;;;;;;;9.90;100.00;100240.23;5068454;56;1141162;-75
2023/11/07 20:10:11;;;;;;;12.63;6.50;;;;;;;9.87;100.00;100237.34;5096780;55;1138703;-75
2023/11/07 20:15:17;;;;;;;16.13;7.03;;;;;;;9.84;100.00;100241.54;5095687;55;1140620;-78
2023/11/07 20:20:24;;;;;;;18.83;6.27;;;;;;;9.85;100.00;100235.30;5125435;55;1140769;-74
2023/11/07 20:25:30;;;;;;;11.17;6.10;;;;;;;9.84;100.00;100241.54;5152552;55;1140877;-77
2023/11/07 20:30:37;;;;;;;13.53;7.30;;;;;;;9.81;100.00;100244.41;5144064;55;1140928;-78
2023/11/07 20:35:43;;;;;;;15.80;6.90;;;;;;;9.77;100.00;100245.64;5140857;55;1140889;-73
2023/11/07 20:40:49;;;;;;;11.85;6.85;;;;;;;9.76;100.00;100243.96;5205786;55;1141211;-78
2023/11/07 20:45:54;;;;;;;14.70;7.87;;;;;;;9.74;100.00;100251.16;5149312;55;1140845;-77
2023/11/07 20:51:00;;;;;;;14.65;6.97;;;;;;;9.71;100.00;100242.98;5057859;56;1140961;-71
2023/11/07 20:56:06;;;;;;;16.67;7.47;;;;;;;9.70;100.00;100239.98;5077457;56;1140849;-77
2023/11/07 21:01:13;;;;;;;15.40;9.37;;;;;;;9.69;100.00;100234.82;5101760;56;1140963;-70
2023/11/07 21:06:18;;;;;;;17.43;7.87;;;;;;;9.66;100.00;100231.94;5115130;56;1140909;-75
2023/11/07 21:11:24;;;;;;;20.80;7.83;;;;;;;9.66;100.00;100230.62;5134715;56;1141368;-81
2023/11/07 21:16:30;;;;;;;20.70;7.80;;;;;;;9.63;100.00;100227.37;5115365;56;1140768;-85
2023/11/07 21:21:35;;;;;;;15.88;7.72;;;;;;;9.61;100.00;100222.72;5109491;56;1140548;-73
2023/11/07 21:26:43;;;;;;;17.10;7.53;;;;;;;9.59;100.00;100221.52;5133707;56;1140766;-81
2023/11/07 21:31:51;;;;;;;101.70;33.30;;;;;;;9.56;100.00;100225.70;5150301;55;1141073;-81
2023/11/07 21:36:57;;;;;;;25.40;9.77;;;;;;;9.50;100.00;100219.09;5208075;55;1145174;-74
2023/11/07 21:42:03;;;;;;;25.33;9.90;;;;;;;9.44;100.00;100222.70;5206401;55;1140838;-78
2023/11/07 21:47:09;;;;;;;31.50;10.57;;;;;;;9.39;100.00;100224.38;5213564;55;1140942;-77
2023/11/07 21:52:16;;;;;;;13.17;6.83;;;;;;;9.33;100.00;100217.39;5144416;55;1143119;-79
2023/11/07 21:57:21;;;;;;;15.90;7.00;;;;;;;9.26;100.00;100213.56;5119510;55;1140990;-76
2023/11/07 22:02:27;;;;;;;12.67;6.27;;;;;;;9.27;100.00;100220.05;5139662;55;1140996;-77
2023/11/07 22:07:33;;;;;;;14.58;7.62;;;;;;;9.23;100.00;100224.34;5124888;55;1140986;-73
2023/11/07 22:12:41;;;;;;;13.85;6.33;;;;;;;9.21;100.00;100221.83;5102757;55;1140790;-70
2023/11/07 22:17:47;;;;;;;15.20;7.40;;;;;;;9.20;100.00;100229.38;5145433;55;1140964;-81
2023/11/07 22:22:52;;;;;;;12.80;6.62;;;;;;;9.20;100.00;100220.62;5205400;55;1140945;-72
2023/11/07 22:27:58;;;;;;;11.50;6.50;;;;;;;9.20;100.00;100225.89;5205920;55;1140895;-70
2023/11/07 22:33:03;;;;;;;10.50;5.60;;;;;;;9.17;100.00;100214.61;5226593;55;1141110;-73
2023/11/07 22:38:09;;;;;;;9.57;5.57;;;;;;;9.13;100.00;100214.52;5198254;55;1140950;-81
2023/11/07 22:43:15;;;;;;;10.20;6.13;;;;;;;9.09;100.00;100211.73;5148221;55;1138945;-75
2023/11/07 22:48:20;;;;;;;19.10;6.40;;;;;;;9.10;100.00;100206.82;5172973;55;1140898;-74
2023/11/07 22:53:27;;;;;;;12.13;6.13;;;;;;;9.09;100.00;100203.82;5020549;57;1140940;-75
2023/11/07 22:58:34;;;;;;;14.40;6.20;;;;;;;9.08;100.00;100203.94;5011290;57;1140807;-78